Time;durP1;ratioP1;P1;durP2;ratioP2;P2;SDS_P1;SDS_P2;PMS_P1;PMS_P2;Temp;Humidity;BMP_temperature;BMP_pressure;BME280_temperature;BME280_humidity;BME280_pressure;Samples;Min_cycle;Max_cycle;Signal;HPM_P1;HPM_P2
2022/06/25 00:01:21;;;;;;;2.70;2.50;;;;;;;;;;5100950;27;20191;-59
2022/06/25 00:03:48;;;;;;;2.90;2.70;;;;;;;;;;5100863;27;20657;-59
2022/06/25 00:06:15;;;;;;;3.20;2.80;;;;;;;;;;5086044;27;20498;-58
2022/06/25 00:08:42;;;;;;;3.10;2.90;;;;;;;;;;5091228;28;20179;-59
2022/06/25 00:11:08;;;;;;;4.43;2.93;;;;;;;;;;5105289;28;20173;-58
2022/06/25 00:13:34;;;;;;;2.67;2.43;;;;;;;;;;5105574;28;20171;-59
2022/06/25 00:16:01;;;;;;;2.90;2.70;;;;;;;;;;5098218;28;20205;-59
2022/06/25 00:18:28;;;;;;;3.10;2.80;;;;;;;;;;5085397;28;20171;-59
2022/06/25 00:20:54;;;;;;;3.40;3.10;;;;;;;;;;5106370;27;20183;-59
2022/06/25 00:23:23;;;;;;;3.00;2.80;;;;;;;;;;5102437;28;20234;-59
2022/06/25 00:25:50;;;;;;;2.70;2.50;;;;;;;;;;5085633;27;20210;-58
2022/06/25 00:28:17;;;;;;;2.93;2.73;;;;;;;;;;5082688;28;20199;-58
2022/06/25 00:30:43;;;;;;;2.80;2.60;;;;;;;;;;5106180;28;20186;-59
2022/06/25 00:33:09;;;;;;;2.87;2.57;;;;;;;;;;5090828;27;20170;-58
2022/06/25 00:35:36;;;;;;;3.27;3.00;;;;;;;;;;5099632;28;20172;-58
2022/06/25 00:38:02;;;;;;;2.50;2.30;;;;;;;;;;5102061;28;20981;-58
2022/06/25 00:40:28;;;;;;;2.73;2.53;;;;;;;;;;5085316;28;20199;-58
2022/06/25 00:42:55;;;;;;;2.80;2.53;;;;;;;;;;5080544;28;20168;-58
2022/06/25 00:45:21;;;;;;;2.80;2.60;;;;;;;;;;5100293;28;20164;-59
2022/06/25 00:47:47;;;;;;;3.58;2.60;;;;;;;;;;5083925;28;20879;-59
2022/06/25 00:50:14;;;;;;;2.70;2.50;;;;;;;;;;5088415;28;20228;-59
2022/06/25 00:52:42;;;;;;;2.70;2.50;;;;;;;;;;5105766;28;20179;-59
2022/06/25 00:55:10;;;;;;;3.13;2.60;;;;;;;;;;5103968;28;20183;-59
2022/06/25 00:57:39;;;;;;;3.17;2.87;;;;;;;;;;5102203;28;20174;-59
2022/06/25 01:00:07;;;;;;;2.63;2.40;;;;;;;;;;5105341;28;20195;-59
2022/06/25 01:02:34;;;;;;;2.50;2.30;;;;;;;;;;5103947;28;20164;-59
2022/06/25 01:05:04;;;;;;;3.60;2.40;;;;;;;;;;5087250;28;20293;-59
2022/06/25 01:07:30;;;;;;;2.93;2.73;;;;;;;;;;5103615;28;20258;-59
2022/06/25 01:09:57;;;;;;;2.97;2.70;;;;;;;;;;5106837;28;20175;-59
2022/06/25 01:12:24;;;;;;;3.97;2.47;;;;;;;;;;5103621;28;20687;-59
2022/06/25 01:15:13;;;;;;;2.73;2.53;;;;;;;;;;5104229;28;20197;-59
2022/06/25 01:17:44;;;;;;;3.00;2.80;;;;;;;;;;5074841;28;20667;-58
2022/06/25 01:20:15;;;;;;;2.70;2.60;;;;;;;;;;5107163;27;20205;-59
2022/06/25 01:22:42;;;;;;;2.63;2.43;;;;;;;;;;5086350;28;20203;-59
2022/06/25 01:25:09;;;;;;;2.70;2.50;;;;;;;;;;5086098;28;20192;-58
2022/06/25 01:27:36;;;;;;;3.57;3.27;;;;;;;;;;5086889;28;20179;-58
2022/06/25 01:30:02;;;;;;;3.10;2.30;;;;;;;;;;5089324;28;20182;-58
2022/06/25 01:32:29;;;;;;;2.93;2.50;;;;;;;;;;5059480;28;20188;-58
2022/06/25 01:34:55;;;;;;;4.23;2.57;;;;;;;;;;5088832;28;20190;-58
2022/06/25 01:37:29;;;;;;;2.20;2.10;;;;;;;;;;5081825;28;20658;-58
2022/06/25 01:39:56;;;;;;;3.57;2.30;;;;;;;;;;5069723;28;20591;-58
2022/06/25 01:45:12;;;;;;;2.77;2.33;;;;;;;;;;5089631;28;20686;-58
2022/06/25 01:47:39;;;;;;;2.40;2.20;;;;;;;;;;5068376;28;20423;-58
2022/06/25 01:50:06;;;;;;;2.67;2.43;;;;;;;;;;5074573;28;20272;-58
2022/06/25 01:52:33;;;;;;;2.37;2.20;;;;;;;;;;5067549;28;20176;-58
2022/06/25 01:54:59;;;;;;;2.90;2.70;;;;;;;;;;5069506;28;20188;-58
2022/06/25 01:57:26;;;;;;;2.60;2.43;;;;;;;;;;5087658;28;20176;-58
2022/06/25 01:59:52;;;;;;;2.70;2.50;;;;;;;;;;5070493;28;20204;-58
2022/06/25 02:02:19;;;;;;;2.67;2.47;;;;;;;;;;5073211;28;20621;-58
2022/06/25 02:04:45;;;;;;;2.53;2.33;;;;;;;;;;5069092;28;20242;-58
2022/06/25 02:07:11;;;;;;;2.40;2.20;;;;;;;;;;5091953;28;20168;-58
2022/06/25 02:09:38;;;;;;;2.30;2.10;;;;;;;;;;5086156;28;20185;-58
2022/06/25 02:12:05;;;;;;;2.53;2.37;;;;;;;;;;5066043;28;20192;-58
2022/06/25 02:14:31;;;;;;;3.00;2.70;;;;;;;;;;5068007;28;20186;-58
2022/06/25 02:16:57;;;;;;;2.80;2.33;;;;;;;;;;5088707;28;20722;-58
2022/06/25 02:19:23;;;;;;;2.70;2.50;;;;;;;;;;5087429;28;20201;-58
2022/06/25 02:21:50;;;;;;;2.27;2.07;;;;;;;;;;5085198;28;20177;-57
2022/06/25 02:24:16;;;;;;;3.10;2.40;;;;;;;;;;5079082;28;20590;-57
2022/06/25 02:26:43;;;;;;;2.50;2.37;;;;;;;;;;5088424;28;20641;-58
2022/06/25 02:29:09;;;;;;;2.60;2.40;;;;;;;;;;5087196;28;20182;-57
2022/06/25 02:31:35;;;;;;;2.20;2.10;;;;;;;;;;5063489;28;20296;-57
2022/06/25 02:34:03;;;;;;;2.43;2.10;;;;;;;;;;5087417;28;20183;-57
2022/06/25 02:36:30;;;;;;;2.43;2.33;;;;;;;;;;5082403;28;20223;-58
2022/06/25 02:38:56;;;;;;;2.03;1.93;;;;;;;;;;5090431;28;20173;-57
2022/06/25 02:41:22;;;;;;;2.27;2.07;;;;;;;;;;5095205;28;20363;-58
2022/06/25 02:43:48;;;;;;;2.50;2.30;;;;;;;;;;5082997;28;20612;-58
2022/06/25 02:46:15;;;;;;;3.13;2.50;;;;;;;;;;5073242;28;20187;-58
2022/06/25 02:48:41;;;;;;;2.73;2.50;;;;;;;;;;5081072;28;20182;-57
2022/06/25 02:51:07;;;;;;;3.90;3.40;;;;;;;;;;5086882;28;20275;-58
2022/06/25 02:53:34;;;;;;;2.90;2.70;;;;;;;;;;5069653;28;20274;-57
2022/06/25 02:58:54;;;;;;;3.33;2.23;;;;;;;;;;5104232;28;20286;-58
2022/06/25 03:01:22;;;;;;;4.27;4.00;;;;;;;;;;5094569;28;20176;-58
2022/06/25 03:03:48;;;;;;;2.50;2.33;;;;;;;;;;5068979;28;20261;-58
2022/06/25 03:06:15;;;;;;;2.87;2.63;;;;;;;;;;5070666;28;20190;-57
2022/06/25 03:08:41;;;;;;;2.93;2.73;;;;;;;;;;5073183;28;20180;-58
2022/06/25 03:11:07;;;;;;;3.10;2.90;;;;;;;;;;5068936;28;20183;-58
2022/06/25 03:13:36;;;;;;;3.30;3.10;;;;;;;;;;5086576;28;20175;-58
2022/06/25 03:16:03;;;;;;;2.80;2.60;;;;;;;;;;5088009;28;20187;-58
2022/06/25 03:18:29;;;;;;;2.73;2.53;;;;;;;;;;5087489;28;20646;-57
2022/06/25 03:20:55;;;;;;;4.17;3.10;;;;;;;;;;5076481;28;20223;-58
2022/06/25 03:23:22;;;;;;;2.87;2.67;;;;;;;;;;5075801;27;20310;-57
2022/06/25 03:25:49;;;;;;;2.70;2.50;;;;;;;;;;5032190;28;20592;-58
2022/06/25 03:28:16;;;;;;;2.60;2.40;;;;;;;;;;5051561;28;20181;-57
2022/06/25 03:30:42;;;;;;;6.53;2.83;;;;;;;;;;5065168;28;20191;-58
2022/06/25 03:33:08;;;;;;;3.80;3.13;;;;;;;;;;5070034;28;20785;-57
2022/06/25 03:35:37;;;;;;;2.77;2.37;;;;;;;;;;5082590;28;20203;-58
2022/06/25 03:38:04;;;;;;;3.80;2.17;;;;;;;;;;5060188;28;20264;-57
2022/06/25 03:40:30;;;;;;;2.63;2.43;;;;;;;;;;5054019;28;20231;-57
2022/06/25 03:42:58;;;;;;;3.07;2.80;;;;;;;;;;5047138;28;20187;-57
2022/06/25 03:45:31;;;;;;;2.57;2.37;;;;;;;;;;5070156;28;20543;-58
2022/06/25 03:47:57;;;;;;;2.83;2.63;;;;;;;;;;5050248;28;20176;-58
2022/06/25 03:50:23;;;;;;;2.30;2.10;;;;;;;;;;5071101;28;20231;-57
2022/06/25 03:52:50;;;;;;;2.80;2.60;;;;;;;;;;5064745;28;20643;-58
2022/06/25 03:55:16;;;;;;;2.90;2.70;;;;;;;;;;5066776;28;20647;-57
2022/06/25 03:57:42;;;;;;;2.70;2.50;;;;;;;;;;5061103;28;20192;-57
2022/06/25 04:00:09;;;;;;;2.77;2.50;;;;;;;;;;5065213;28;20646;-58
2022/06/25 04:02:42;;;;;;;2.50;2.40;;;;;;;;;;5068539;28;20191;-57
2022/06/25 04:05:08;;;;;;;3.90;3.63;;;;;;;;;;5060220;28;20676;-58
2022/06/25 04:07:34;;;;;;;2.83;2.47;;;;;;;;;;5066164;28;20533;-57
2022/06/25 04:10:00;;;;;;;2.97;2.70;;;;;;;;;;5069022;28;20553;-57
2022/06/25 04:12:26;;;;;;;2.63;2.43;;;;;;;;;;5064728;28;20183;-57
2022/06/25 04:14:52;;;;;;;2.77;2.57;;;;;;;;;;5063721;28;20177;-58
2022/06/25 04:17:18;;;;;;;3.03;2.33;;;;;;;;;;5067664;28;20180;-57
2022/06/25 04:19:44;;;;;;;2.53;2.33;;;;;;;;;;5066728;28;20650;-58
2022/06/25 04:22:11;;;;;;;3.20;2.90;;;;;;;;;;5059607;28;20655;-58
2022/06/25 04:24:38;;;;;;;2.60;2.40;;;;;;;;;;5059624;28;20221;-58
2022/06/25 04:27:04;;;;;;;3.20;2.90;;;;;;;;;;5082310;28;20217;-58
2022/06/25 04:29:31;;;;;;;6.77;3.57;;;;;;;;;;5084506;28;20508;-58
2022/06/25 04:31:57;;;;;;;2.70;2.20;;;;;;;;;;5085584;28;20187;-58
2022/06/25 04:34:24;;;;;;;2.80;2.60;;;;;;;;;;5088931;28;20685;-58
2022/06/25 04:36:50;;;;;;;4.07;2.83;;;;;;;;;;5063566;28;20238;-59
2022/06/25 04:39:16;;;;;;;2.57;2.37;;;;;;;;;;5064313;28;20650;-58
2022/06/25 04:41:43;;;;;;;2.63;2.43;;;;;;;;;;5093355;28;20607;-59
2022/06/25 04:44:09;;;;;;;2.60;2.40;;;;;;;;;;5084431;28;20639;-58
2022/06/25 04:46:36;;;;;;;3.10;2.90;;;;;;;;;;5080689;28;20242;-58
2022/06/25 04:49:02;;;;;;;3.10;2.50;;;;;;;;;;5091929;28;20173;-58
2022/06/25 04:51:28;;;;;;;2.50;2.30;;;;;;;;;;5082226;28;20204;-58
2022/06/25 04:53:55;;;;;;;2.93;2.60;;;;;;;;;;5081983;28;20177;-58
2022/06/25 04:56:21;;;;;;;6.13;2.73;;;;;;;;;;5093805;28;20920;-58
2022/06/25 04:58:47;;;;;;;2.43;2.23;;;;;;;;;;5080550;28;20704;-58
2022/06/25 05:01:13;;;;;;;3.50;3.20;;;;;;;;;;5084148;28;20693;-58
2022/06/25 05:03:39;;;;;;;3.17;2.97;;;;;;;;;;5080175;28;20648;-58
2022/06/25 05:06:06;;;;;;;4.47;2.90;;;;;;;;;;5085240;28;20665;-58
2022/06/25 05:08:33;;;;;;;3.03;2.73;;;;;;;;;;5082737;28;20754;-58
2022/06/25 05:10:59;;;;;;;3.17;2.53;;;;;;;;;;5065962;28;20547;-58
2022/06/25 05:13:25;;;;;;;2.70;2.50;;;;;;;;;;5081870;28;20247;-59
2022/06/25 05:15:52;;;;;;;5.47;2.50;;;;;;;;;;5091213;28;20185;-58
2022/06/25 05:18:19;;;;;;;4.23;2.50;;;;;;;;;;5080417;28;20291;-58
2022/06/25 05:20:45;;;;;;;2.90;2.50;;;;;;;;;;5095033;28;20587;-58
2022/06/25 05:23:12;;;;;;;2.30;2.17;;;;;;;;;;5084742;28;20217;-58
2022/06/25 05:25:39;;;;;;;5.60;2.80;;;;;;;;;;5082129;28;20187;-58
2022/06/25 05:28:06;;;;;;;2.50;2.30;;;;;;;;;;5074823;28;20185;-57
2022/06/25 05:30:32;;;;;;;2.80;2.60;;;;;;;;;;5054215;28;20188;-58
2022/06/25 05:32:58;;;;;;;3.00;2.60;;;;;;;;;;5074297;28;20524;-58
2022/06/25 05:35:24;;;;;;;3.63;3.07;;;;;;;;;;5064281;28;20173;-57
2022/06/25 05:37:50;;;;;;;2.97;2.67;;;;;;;;;;5068728;28;20182;-58
2022/06/25 05:40:17;;;;;;;2.37;2.23;;;;;;;;;;5068112;28;20193;-58
2022/06/25 05:42:43;;;;;;;5.13;3.17;;;;;;;;;;5067197;28;20352;-58
2022/06/25 05:45:14;;;;;;;2.60;2.37;;;;;;;;;;5075346;28;20204;-58
2022/06/25 05:47:41;;;;;;;2.50;2.30;;;;;;;;;;5075421;28;20181;-58
2022/06/25 05:50:07;;;;;;;5.03;2.63;;;;;;;;;;5073627;28;20332;-58
2022/06/25 05:52:33;;;;;;;2.60;2.50;;;;;;;;;;5075668;28;20278;-57
2022/06/25 05:54:59;;;;;;;2.50;2.30;;;;;;;;;;5083330;28;20250;-58
2022/06/25 05:57:26;;;;;;;2.73;2.50;;;;;;;;;;5049018;28;20184;-58
2022/06/25 05:59:52;;;;;;;3.13;2.83;;;;;;;;;;5080610;28;20203;-58
2022/06/25 06:02:18;;;;;;;2.77;2.57;;;;;;;;;;5071582;28;20169;-58
2022/06/25 06:04:44;;;;;;;2.87;2.67;;;;;;;;;;5059728;28;20184;-58
2022/06/25 06:07:11;;;;;;;3.33;3.03;;;;;;;;;;5076796;28;20180;-58
2022/06/25 06:09:37;;;;;;;3.93;3.13;;;;;;;;;;5089086;28;20704;-57
2022/06/25 06:12:03;;;;;;;3.50;2.90;;;;;;;;;;5075845;28;20267;-57
2022/06/25 06:14:35;;;;;;;3.40;2.67;;;;;;;;;;5065132;28;20267;-57
2022/06/25 06:17:01;;;;;;;3.10;2.80;;;;;;;;;;5071268;28;20172;-58
2022/06/25 06:19:27;;;;;;;2.70;2.50;;;;;;;;;;5069551;28;20192;-57
2022/06/25 06:21:54;;;;;;;2.90;2.60;;;;;;;;;;5070273;28;20173;-57
2022/06/25 06:24:20;;;;;;;3.00;2.80;;;;;;;;;;5077476;28;20769;-57
2022/06/25 06:26:46;;;;;;;3.10;2.80;;;;;;;;;;5085092;28;20173;-57
2022/06/25 06:29:12;;;;;;;2.93;2.70;;;;;;;;;;5089256;28;20164;-57
2022/06/25 06:31:38;;;;;;;3.27;2.97;;;;;;;;;;5069838;28;20171;-58
2022/06/25 06:34:04;;;;;;;3.03;2.80;;;;;;;;;;5098684;28;20533;-57
2022/06/25 06:36:31;;;;;;;3.10;2.90;;;;;;;;;;5076837;28;20313;-57
2022/06/25 06:38:57;;;;;;;4.00;2.47;;;;;;;;;;5066585;28;20171;-57
2022/06/25 06:41:24;;;;;;;2.87;2.67;;;;;;;;;;5102419;28;20219;-57
2022/06/25 06:43:50;;;;;;;3.50;3.23;;;;;;;;;;5093567;28;20172;-57
2022/06/25 06:46:16;;;;;;;3.30;2.90;;;;;;;;;;5064810;28;20240;-58
2022/06/25 06:48:42;;;;;;;2.60;2.40;;;;;;;;;;5078531;28;20610;-57
2022/06/25 06:51:08;;;;;;;3.03;2.83;;;;;;;;;;5092838;28;20249;-58
2022/06/25 06:53:35;;;;;;;3.20;3.00;;;;;;;;;;5087830;28;20298;-57
2022/06/25 06:56:01;;;;;;;3.30;3.00;;;;;;;;;;5098310;28;20606;-58
2022/06/25 06:58:27;;;;;;;2.83;2.53;;;;;;;;;;5108262;28;20650;-57
2022/06/25 07:00:54;;;;;;;4.17;3.00;;;;;;;;;;5105863;28;20218;-57
2022/06/25 07:03:20;;;;;;;3.73;3.00;;;;;;;;;;5083992;28;20877;-57
2022/06/25 07:05:46;;;;;;;2.80;2.50;;;;;;;;;;5074169;28;20167;-57
2022/06/25 07:08:12;;;;;;;3.20;3.00;;;;;;;;;;5084587;28;20499;-57
2022/06/25 07:10:38;;;;;;;3.30;3.00;;;;;;;;;;5085173;28;20526;-56
2022/06/25 07:13:04;;;;;;;3.70;2.50;;;;;;;;;;5087434;28;20207;-56
2022/06/25 07:15:30;;;;;;;5.00;2.60;;;;;;;;;;5086992;28;20167;-57
2022/06/25 07:17:56;;;;;;;2.90;2.40;;;;;;;;;;5083091;28;20310;-57
2022/06/25 07:20:23;;;;;;;2.90;2.50;;;;;;;;;;5089498;28;20206;-59
2022/06/25 07:22:49;;;;;;;3.23;2.67;;;;;;;;;;5098237;28;20176;-57
2022/06/25 07:25:15;;;;;;;2.70;2.50;;;;;;;;;;5082484;28;20276;-57
2022/06/25 07:27:43;;;;;;;4.30;2.77;;;;;;;;;;5084137;28;20259;-56
2022/06/25 07:30:10;;;;;;;2.80;2.50;;;;;;;;;;5086623;28;20607;-57
2022/06/25 07:32:36;;;;;;;4.00;2.60;;;;;;;;;;5082697;28;20669;-56
2022/06/25 07:35:02;;;;;;;4.37;2.70;;;;;;;;;;5083512;28;20204;-57
2022/06/25 07:37:28;;;;;;;6.57;3.20;;;;;;;;;;5084974;28;20596;-56
2022/06/25 07:39:54;;;;;;;4.47;2.70;;;;;;;;;;5082129;28;20204;-56
2022/06/25 07:42:20;;;;;;;2.93;2.37;;;;;;;;;;5079798;28;20616;-57
2022/06/25 07:44:46;;;;;;;3.90;3.17;;;;;;;;;;5083930;28;20177;-56
2022/06/25 07:47:13;;;;;;;7.63;3.90;;;;;;;;;;5082900;28;20357;-57
2022/06/25 07:52:24;;;;;;;4.93;2.60;;;;;;;;;;5085125;28;20679;-56
2022/06/25 07:54:50;;;;;;;3.30;2.70;;;;;;;;;;5084160;28;20184;-57
2022/06/25 07:57:16;;;;;;;3.20;2.10;;;;;;;;;;5084307;28;20175;-56
2022/06/25 07:59:42;;;;;;;3.00;2.13;;;;;;;;;;5086255;28;20656;-56
2022/06/25 08:02:09;;;;;;;3.83;2.57;;;;;;;;;;5072401;28;20183;-56
2022/06/25 08:04:35;;;;;;;4.60;2.90;;;;;;;;;;5078527;28;20635;-56
2022/06/25 08:07:01;;;;;;;3.03;2.50;;;;;;;;;;5082865;28;20244;-56
2022/06/25 08:09:27;;;;;;;3.57;2.40;;;;;;;;;;5076983;28;20532;-55
2022/06/25 08:11:53;;;;;;;2.87;2.60;;;;;;;;;;5080985;28;20490;-57
2022/06/25 08:14:19;;;;;;;2.77;2.53;;;;;;;;;;5085071;28;20259;-56
2022/06/25 08:16:45;;;;;;;4.40;2.70;;;;;;;;;;5093802;28;20547;-56
2022/06/25 08:19:11;;;;;;;2.97;2.27;;;;;;;;;;5082478;28;20207;-57
2022/06/25 08:21:38;;;;;;;2.60;2.40;;;;;;;;;;5081945;28;20173;-56
2022/06/25 08:24:04;;;;;;;6.17;3.03;;;;;;;;;;5080344;28;20585;-57
2022/06/25 08:26:30;;;;;;;3.47;2.40;;;;;;;;;;5081427;28;20188;-57
2022/06/25 08:28:56;;;;;;;5.83;2.90;;;;;;;;;;5081645;28;20175;-56
2022/06/25 08:31:24;;;;;;;3.10;2.90;;;;;;;;;;5092353;28;20538;-56
2022/06/25 08:33:50;;;;;;;6.93;2.87;;;;;;;;;;5077139;28;20199;-57
2022/06/25 08:36:16;;;;;;;2.60;2.40;;;;;;;;;;5080862;28;20190;-55
2022/06/25 08:38:42;;;;;;;2.13;1.93;;;;;;;;;;5081795;28;20468;-56
2022/06/25 08:41:08;;;;;;;3.77;2.30;;;;;;;;;;5094417;28;20205;-57
2022/06/25 08:43:36;;;;;;;4.83;2.20;;;;;;;;;;5058262;28;20171;-57
2022/06/25 08:46:03;;;;;;;3.40;2.70;;;;;;;;;;5085366;28;20167;-58
2022/06/25 08:48:34;;;;;;;2.57;2.37;;;;;;;;;;5076223;28;20176;-56
2022/06/25 08:51:04;;;;;;;3.47;2.30;;;;;;;;;;5081524;28;20229;-57
2022/06/25 08:53:31;;;;;;;4.63;2.70;;;;;;;;;;5084517;28;20191;-56
2022/06/25 08:55:58;;;;;;;3.73;2.80;;;;;;;;;;5087672;28;20192;-56
2022/06/25 08:58:24;;;;;;;3.40;2.10;;;;;;;;;;5084719;28;20625;-57
2022/06/25 09:00:50;;;;;;;3.60;2.03;;;;;;;;;;5079485;28;20227;-57
2022/06/25 09:03:16;;;;;;;3.70;1.90;;;;;;;;;;5078359;28;20172;-56
2022/06/25 09:05:43;;;;;;;3.80;2.20;;;;;;;;;;5079859;28;20246;-56
2022/06/25 09:08:16;;;;;;;2.90;2.00;;;;;;;;;;5083844;28;20197;-56
2022/06/25 09:10:45;;;;;;;3.47;2.00;;;;;;;;;;5088357;28;20649;-56
2022/06/25 09:13:12;;;;;;;2.30;1.70;;;;;;;;;;5106611;28;20171;-56
2022/06/25 09:15:42;;;;;;;3.30;2.10;;;;;;;;;;5102129;28;20164;-56
2022/06/25 09:18:09;;;;;;;2.30;2.10;;;;;;;;;;5086938;28;20167;-57
2022/06/25 09:20:36;;;;;;;2.33;2.17;;;;;;;;;;5082817;28;20298;-56
2022/06/25 09:23:06;;;;;;;3.77;2.03;;;;;;;;;;5079217;28;20183;-56
2022/06/25 09:25:33;;;;;;;2.10;1.90;;;;;;;;;;5039068;28;20216;-56
2022/06/25 09:27:59;;;;;;;4.53;2.50;;;;;;;;;;5065171;28;20168;-57
2022/06/25 09:30:27;;;;;;;4.83;2.00;;;;;;;;;;5066340;28;20172;-57
2022/06/25 09:32:59;;;;;;;3.23;2.00;;;;;;;;;;5063199;28;20253;-56
2022/06/25 09:35:31;;;;;;;2.40;2.00;;;;;;;;;;5061992;28;20639;-56
2022/06/25 09:38:01;;;;;;;2.03;1.83;;;;;;;;;;5063361;28;20180;-56
2022/06/25 09:40:27;;;;;;;3.63;2.20;;;;;;;;;;5044291;28;20444;-56
2022/06/25 09:42:53;;;;;;;2.20;1.90;;;;;;;;;;5065098;28;20176;-55
2022/06/25 09:45:19;;;;;;;2.00;1.90;;;;;;;;;;5063672;28;20204;-56
2022/06/25 09:47:45;;;;;;;2.57;1.83;;;;;;;;;;5068363;28;20173;-56
2022/06/25 09:50:16;;;;;;;2.60;2.33;;;;;;;;;;5063554;28;20177;-56
2022/06/25 09:52:52;;;;;;;4.90;2.00;;;;;;;;;;5069010;28;20180;-55
2022/06/25 09:55:19;;;;;;;3.60;2.10;;;;;;;;;;5061795;28;20386;-55
2022/06/25 09:57:52;;;;;;;2.57;2.13;;;;;;;;;;5066832;28;20185;-55
2022/06/25 10:00:19;;;;;;;2.53;2.07;;;;;;;;;;5067209;28;20702;-55
2022/06/25 10:02:46;;;;;;;2.30;2.10;;;;;;;;;;5068505;28;20267;-56
2022/06/25 10:05:13;;;;;;;1.80;1.70;;;;;;;;;;5071399;28;20230;-55
2022/06/25 10:10:25;;;;;;;2.57;2.37;;;;;;;;;;5066010;28;20195;-56
2022/06/25 10:12:51;;;;;;;2.27;2.07;;;;;;;;;;5060452;28;20281;-56
2022/06/25 10:15:19;;;;;;;2.30;2.10;;;;;;;;;;5054830;28;20185;-60
2022/06/25 10:17:49;;;;;;;2.83;1.80;;;;;;;;;;5061478;28;20192;-60
2022/06/25 10:20:15;;;;;;;3.17;2.00;;;;;;;;;;5063507;28;20678;-61
2022/06/25 10:22:42;;;;;;;3.90;2.20;;;;;;;;;;5060948;28;20212;-60
2022/06/25 10:25:10;;;;;;;5.20;1.90;;;;;;;;;;5072284;28;20221;-60
2022/06/25 10:27:43;;;;;;;2.20;1.93;;;;;;;;;;5069777;28;20971;-68
2022/06/25 10:30:09;;;;;;;2.53;2.20;;;;;;;;;;5068765;28;20181;-60
2022/06/25 10:32:42;;;;;;;2.90;2.60;;;;;;;;;;5064954;28;20172;-59
2022/06/25 10:35:09;;;;;;;2.23;2.03;;;;;;;;;;5068313;28;20696;-58
2022/06/25 10:38:02;;;;;;;2.60;2.40;;;;;;;;;;5050288;28;20560;-57
2022/06/25 10:40:29;;;;;;;3.50;2.47;;;;;;;;;;5054006;28;20200;-59
2022/06/25 10:43:01;;;;;;;2.97;1.90;;;;;;;;;;5072346;28;20180;-57
2022/06/25 10:45:34;;;;;;;3.67;2.10;;;;;;;;;;5070151;28;20171;-58
2022/06/25 10:48:01;;;;;;;2.80;2.10;;;;;;;;;;5062672;28;20251;-58
2022/06/25 10:50:34;;;;;;;4.73;2.40;;;;;;;;;;5060467;28;20323;-57
2022/06/25 10:53:04;;;;;;;3.23;2.30;;;;;;;;;;5059326;28;20181;-58
2022/06/25 10:55:31;;;;;;;7.10;2.90;;;;;;;;;;5071218;28;20721;-58
2022/06/25 10:58:16;;;;;;;3.47;2.40;;;;;;;;;;5061808;28;20180;-59
2022/06/25 11:00:49;;;;;;;2.70;2.40;;;;;;;;;;5061996;28;20259;-57
2022/06/25 11:03:16;;;;;;;5.77;2.67;;;;;;;;;;5074493;28;20575;-58
2022/06/25 11:05:43;;;;;;;4.13;2.80;;;;;;;;;;5068574;28;20191;-59
2022/06/25 11:08:10;;;;;;;6.23;2.70;;;;;;;;;;5064779;28;20191;-58
2022/06/25 11:10:37;;;;;;;3.20;2.70;;;;;;;;;;5065830;28;20693;-58
2022/06/25 11:13:04;;;;;;;4.27;2.30;;;;;;;;;;5064700;28;20224;-58
2022/06/25 11:15:43;;;;;;;5.50;2.70;;;;;;;;;;5074313;28;20191;-58
2022/06/25 11:18:10;;;;;;;2.80;2.40;;;;;;;;;;5061286;28;20185;-58
2022/06/25 11:20:36;;;;;;;5.37;2.70;;;;;;;;;;5063974;28;20746;-59
2022/06/25 11:23:05;;;;;;;5.73;2.70;;;;;;;;;;5056592;28;20582;-59
2022/06/25 11:31:17;;;;;;;2.40;2.20;;;;;;;;;;5084782;28;20206;-58
2022/06/25 11:33:43;;;;;;;4.50;2.07;;;;;;;;;;5064481;28;20193;-58
2022/06/25 11:36:09;;;;;;;4.47;2.70;;;;;;;;;;5082683;28;20185;-57
2022/06/25 11:38:36;;;;;;;6.33;2.77;;;;;;;;;;5060187;28;20179;-58
2022/06/25 11:41:03;;;;;;;4.20;2.47;;;;;;;;;;5084246;28;20265;-59
2022/06/25 11:43:29;;;;;;;3.07;2.70;;;;;;;;;;5084914;28;20214;-58
2022/06/25 11:45:59;;;;;;;5.23;3.23;;;;;;;;;;5066651;28;20184;-58
2022/06/25 11:48:29;;;;;;;4.00;2.40;;;;;;;;;;5082316;28;20187;-57
2022/06/25 11:50:56;;;;;;;6.67;2.47;;;;;;;;;;5083559;28;20223;-58
2022/06/25 11:53:22;;;;;;;4.40;2.40;;;;;;;;;;5076080;28;20619;-58
2022/06/25 11:55:57;;;;;;;5.43;2.80;;;;;;;;;;5086642;28;20186;-58
2022/06/25 11:58:26;;;;;;;4.27;2.30;;;;;;;;;;5093687;28;20210;-59
2022/06/25 12:00:54;;;;;;;3.93;2.20;;;;;;;;;;5085435;28;20449;-58
2022/06/25 12:03:22;;;;;;;8.30;3.40;;;;;;;;;;5083690;28;20610;-58
2022/06/25 12:05:49;;;;;;;2.60;2.40;;;;;;;;;;5063422;28;20195;-59
2022/06/25 12:08:15;;;;;;;4.23;2.70;;;;;;;;;;5081673;28;20177;-58
2022/06/25 12:10:42;;;;;;;3.60;2.13;;;;;;;;;;5093714;28;20621;-58
2022/06/25 12:13:08;;;;;;;4.13;2.70;;;;;;;;;;5089211;28;20180;-58
2022/06/25 12:15:35;;;;;;;2.33;1.90;;;;;;;;;;5078020;28;20224;-58
2022/06/25 12:18:05;;;;;;;5.87;2.20;;;;;;;;;;5080834;28;20281;-58
2022/06/25 12:20:32;;;;;;;6.73;2.57;;;;;;;;;;5084100;28;20204;-58
2022/06/25 12:23:30;;;;;;;5.87;2.83;;;;;;;;;;5080628;28;20168;-58
2022/06/25 12:26:31;;;;;;;2.80;2.60;;;;;;;;;;4990751;28;20606;-58
2022/06/25 12:29:11;;;;;;;2.60;2.40;;;;;;;;;;5060196;28;20321;-58
2022/06/25 12:31:37;;;;;;;2.97;2.17;;;;;;;;;;5032268;28;20651;-58
2022/06/25 12:34:04;;;;;;;2.93;2.30;;;;;;;;;;5084155;28;20172;-58
2022/06/25 12:36:30;;;;;;;3.10;2.30;;;;;;;;;;5079290;28;20188;-58
2022/06/25 12:38:56;;;;;;;3.93;2.57;;;;;;;;;;5084498;28;20176;-58
2022/06/25 12:41:42;;;;;;;4.20;2.37;;;;;;;;;;5085242;28;20568;-58
2022/06/25 12:44:13;;;;;;;2.83;2.10;;;;;;;;;;5069030;28;20181;-58
2022/06/25 12:46:39;;;;;;;4.23;2.07;;;;;;;;;;5085557;28;20388;-57
2022/06/25 12:49:05;;;;;;;2.97;2.43;;;;;;;;;;5069595;28;20235;-58
2022/06/25 12:51:31;;;;;;;2.73;2.20;;;;;;;;;;5086091;28;20191;-58
2022/06/25 12:53:57;;;;;;;2.50;2.13;;;;;;;;;;5074971;28;20213;-59
2022/06/25 12:56:23;;;;;;;4.40;2.50;;;;;;;;;;5079264;28;20671;-58
2022/06/25 12:58:49;;;;;;;3.33;2.20;;;;;;;;;;5082927;28;20675;-57
2022/06/25 13:01:26;;;;;;;3.53;2.10;;;;;;;;;;5078398;28;20702;-58
2022/06/25 13:03:53;;;;;;;4.90;2.23;;;;;;;;;;5078478;28;20263;-57
2022/06/25 13:06:20;;;;;;;3.13;2.30;;;;;;;;;;5082392;28;20238;-57
2022/06/25 13:08:46;;;;;;;2.43;2.07;;;;;;;;;;5081823;28;20700;-57
2022/06/25 13:11:19;;;;;;;3.00;2.70;;;;;;;;;;5083920;28;20217;-61
2022/06/25 13:13:46;;;;;;;2.90;2.23;;;;;;;;;;5083038;28;20666;-57
2022/06/25 13:16:12;;;;;;;4.33;2.30;;;;;;;;;;5090192;28;20584;-58
2022/06/25 13:18:39;;;;;;;2.60;2.40;;;;;;;;;;5089382;28;20282;-57
2022/06/25 13:21:05;;;;;;;2.97;2.73;;;;;;;;;;5088345;28;20198;-58
2022/06/25 13:23:31;;;;;;;4.10;2.43;;;;;;;;;;5089569;28;20159;-58
2022/06/25 13:25:57;;;;;;;2.30;1.97;;;;;;;;;;5085067;28;20231;-58
2022/06/25 13:28:23;;;;;;;4.37;2.60;;;;;;;;;;5086179;28;20320;-58
2022/06/25 13:30:49;;;;;;;2.60;2.30;;;;;;;;;;5088845;28;20263;-58
2022/06/25 13:33:15;;;;;;;3.30;2.20;;;;;;;;;;5081708;28;20624;-58
2022/06/25 13:35:41;;;;;;;2.47;2.13;;;;;;;;;;5087109;28;20364;-58
2022/06/25 13:38:07;;;;;;;3.23;2.23;;;;;;;;;;5079690;28;20180;-58
2022/06/25 13:40:33;;;;;;;3.67;2.57;;;;;;;;;;5068574;28;20987;-58
2022/06/25 13:42:59;;;;;;;4.53;2.43;;;;;;;;;;5087210;28;20538;-58
2022/06/25 13:45:26;;;;;;;3.80;2.57;;;;;;;;;;5087108;28;20191;-57
2022/06/25 13:47:52;;;;;;;3.00;2.63;;;;;;;;;;5085724;28;20194;-58
2022/06/25 13:50:18;;;;;;;3.10;2.67;;;;;;;;;;5082977;28;20210;-58
2022/06/25 13:52:44;;;;;;;2.50;2.30;;;;;;;;;;5079390;28;20183;-58
2022/06/25 13:55:10;;;;;;;2.50;2.30;;;;;;;;;;5065947;28;20548;-58
2022/06/25 13:57:36;;;;;;;4.00;3.63;;;;;;;;;;5085145;28;20522;-58
2022/06/25 14:00:04;;;;;;;5.00;3.27;;;;;;;;;;5085407;28;20206;-58
2022/06/25 14:02:30;;;;;;;3.23;2.20;;;;;;;;;;5084294;28;20633;-58
2022/06/25 14:04:56;;;;;;;4.33;2.60;;;;;;;;;;5088277;28;20185;-58
2022/06/25 14:07:22;;;;;;;2.70;2.30;;;;;;;;;;5085887;28;20630;-58
2022/06/25 14:09:48;;;;;;;2.63;2.20;;;;;;;;;;5088091;28;20197;-58
2022/06/25 14:12:14;;;;;;;3.08;2.38;;;;;;;;;;5089107;28;20523;-59
2022/06/25 14:14:41;;;;;;;5.57;2.70;;;;;;;;;;5077061;28;20191;-66
2022/06/25 14:17:07;;;;;;;4.07;2.60;;;;;;;;;;5076490;28;20176;-60
2022/06/25 14:19:33;;;;;;;16.37;4.83;;;;;;;;;;5080976;28;20176;-60
2022/06/25 14:22:00;;;;;;;9.93;2.70;;;;;;;;;;5081098;28;20721;-60
2022/06/25 14:27:10;;;;;;;4.07;2.30;;;;;;;;;;5072061;28;20703;-60
2022/06/25 14:29:36;;;;;;;2.10;1.90;;;;;;;;;;5068774;28;20186;-60
2022/06/25 14:32:03;;;;;;;2.50;2.33;;;;;;;;;;5064607;28;20267;-60
2022/06/25 14:34:29;;;;;;;4.03;2.23;;;;;;;;;;5070985;28;20270;-59
2022/06/25 14:42:25;;;;;;;3.77;2.60;;;;;;;;;;5058473;28;20183;-58
2022/06/25 14:44:51;;;;;;;3.50;2.40;;;;;;;;;;5064201;28;20210;-57
2022/06/25 14:47:18;;;;;;;5.93;2.73;;;;;;;;;;5061386;28;20632;-58
2022/06/25 14:49:44;;;;;;;8.30;3.03;;;;;;;;;;5058958;28;20269;-59
2022/06/25 14:52:10;;;;;;;2.30;2.10;;;;;;;;;;5058926;28;20731;-57
2022/06/25 14:54:37;;;;;;;2.50;2.30;;;;;;;;;;5069367;28;20180;-57
2022/06/25 14:57:03;;;;;;;5.20;2.37;;;;;;;;;;5067868;28;20177;-57
2022/06/25 14:59:29;;;;;;;3.83;2.20;;;;;;;;;;5071024;28;20294;-57
2022/06/25 15:01:55;;;;;;;2.60;2.40;;;;;;;;;;5075308;28;20186;-56
2022/06/25 15:04:21;;;;;;;2.50;2.30;;;;;;;;;;5061045;28;20572;-56
2022/06/25 15:06:47;;;;;;;4.03;2.30;;;;;;;;;;5060967;28;20182;-57
2022/06/25 15:09:13;;;;;;;3.27;2.27;;;;;;;;;;5064670;28;20691;-56